Flight Track Log - Related Links

Times and Time Zones

All times are in EDT time to prevent confusion due to time zone crossing. See the SWA558 flight status page for this flight to view local times or setup timezone preferences in your user account.

Time Position Orientation Groundspeed Altitude Reporting Facility
EDT Latitude Longitude Course Direction KTS MPH feet Rate Location/Type
Tue 08:37:00 AM 34.7156 -92.2519 262° West 152 175 1,300  Level Memphis Center
Tue 08:37:30 AM 34.7131 -92.2747 262° West 149 171 2,100 1,516 Climbing Memphis Center
Tue 08:38:31 AM 34.7203 -92.3456 277° West 231 266 3,600 2,118 Climbing Memphis Center
Tue 08:40:20 AM 34.7431 -92.4953 281° West 267 307 8,100 2,485 Climbing Memphis Center
Tue 08:41:20 AM 34.7578 -92.5942 280° West 284 327 10,600 2,400 Climbing Memphis Center
Tue 08:42:20 AM 34.7725 -92.7108 279° West 320 368 12,900 2,650 Climbing Memphis Center
Tue 08:43:20 AM 34.7908 -92.8353 280° West 356 410 15,900 2,750 Climbing Memphis Center
Tue 08:44:20 AM 34.8069 -92.9647 279° West 380 437 18,400 2,600 Climbing Memphis Center
Tue 08:45:20 AM 34.8272 -93.0969 281° West 393 452 21,100 2,450 Climbing Memphis Center
Tue 08:46:20 AM 34.8450 -93.2317 279° West 399 459 23,300 2,100 Climbing Memphis Center
Tue 08:47:20 AM 34.8644 -93.3767 279° West 421 484 25,300 2,000 Climbing Memphis Center
Tue 08:48:20 AM 34.8839 -93.5242 279° West 433 498 27,300 1,900 Climbing Memphis Center
Tue 08:49:20 AM 34.9050 -93.6742 280° West 445 512 29,100 1,900 Climbing Memphis Center
Tue 08:50:20 AM 34.9258 -93.8269 279° West 450 518 31,100 1,900 Climbing Memphis Center
Tue 08:51:20 AM 34.9425 -93.9747 278° West 450 518 32,900 1,450 Climbing Memphis Center
Tue 08:52:20 AM 34.9625 -94.1403 278° West 450 518 34,000 1,050 Climbing Memphis Center
Tue 08:53:20 AM 34.9831 -94.2906 280° West 450 518 35,000 500 Climbing Memphis Center
Tue 08:54:20 AM 35.0011 -94.4411 278° West 450 518 35,000  Level Memphis Center
Tue 08:55:20 AM 35.0211 -94.5917 279° West 450 518 35,000  Level Memphis Center
Tue 08:56:01 AM 35.0369 -94.6953 281° West 451 519 35,000  Level Fort Worth Center
Tue 08:57:01 AM 35.0547 -94.8469 278° West 451 519 35,000 450 Level Fort Worth Center
Tue 08:58:01 AM 35.0722 -94.9986 278° West 451 519 35,900 1,200 Climbing Fort Worth Center
Tue 08:59:01 AM 35.0814 -95.1556 274° West 451 519 37,400 1,050 Climbing Fort Worth Center
Tue 09:00:01 AM 35.0881 -95.3025 273° West 451 519 38,000 300 Climbing Fort Worth Center
Tue 09:01:01 AM 35.0947 -95.4444 273° West 439 505 38,000  Level Fort Worth Center
Tue 09:02:01 AM 35.1031 -95.5939 274° West 439 505 38,000  Level Fort Worth Center
Tue 09:03:01 AM 35.1072 -95.7411 272° West 439 505 38,000  Level Fort Worth Center
Tue 09:04:01 AM 35.1150 -95.8553 275° West 439 505 38,000  Level Fort Worth Center
Tue 09:05:01 AM 35.1192 -96.0278 272° West 434 499 38,000  Level Fort Worth Center
Tue 09:06:01 AM 35.1247 -96.1722 273° West 434 499 38,000  Level Fort Worth Center
Tue 09:07:01 AM 35.1303 -96.3169 273° West 434 499 38,000  Level Fort Worth Center
Tue 09:08:01 AM 35.1356 -96.4617 273° West 434 499 38,000  Level Fort Worth Center
Tue 09:09:01 AM 35.1408 -96.6036 273° West 429 494 38,000  Level Fort Worth Center
Tue 09:10:01 AM 35.1458 -96.7483 272° West 429 494 38,000  Level Fort Worth Center
Tue 09:11:01 AM 35.1508 -96.8931 272° West 429 494 38,000  Level Fort Worth Center
Tue 09:12:01 AM 35.1553 -97.0353 272° West 423 487 38,000  Level Fort Worth Center
Tue 09:13:01 AM 35.1578 -97.1825 271° West 423 487 38,000  Level Fort Worth Center
Tue 09:14:01 AM 35.1622 -97.3297 272° West 428 493 38,000  Level Fort Worth Center
Tue 09:15:01 AM 35.1664 -97.4769 272° West 433 498 38,000  Level Fort Worth Center
Tue 09:16:01 AM 35.1744 -97.6042 274° West 438 504 38,000  Level Fort Worth Center
Tue 09:17:01 AM 35.1783 -97.7489 272° West 438 504 38,000  Level Fort Worth Center
Tue 09:18:01 AM 35.1822 -97.8936 272° West 438 504 38,000  Level Fort Worth Center
Tue 09:19:01 AM 35.1878 -98.0358 273° West 426 490 38,000  Level Fort Worth Center
Tue 09:20:01 AM 35.1911 -98.1756 272° West 420 483 38,000  Level Fort Worth Center
Tue 09:21:01 AM 35.1944 -98.3206 272° West 420 483 38,000  Level Fort Worth Center
Tue 09:22:01 AM 35.1994 -98.4653 272° West 420 483 38,000  Level Fort Worth Center
Tue 09:23:01 AM 35.2022 -98.6153 271° West 420 483 38,000  Level Fort Worth Center
Tue 09:24:01 AM 35.2050 -98.7628 271° West 425 489 38,000  Level Fort Worth Center
Tue 09:25:01 AM 35.2075 -98.9075 271° West 431 496 38,000  Level Fort Worth Center
Tue 09:26:01 AM 35.2119 -99.0550 272° West 431 496 38,000  Level Fort Worth Center
Tue 09:27:01 AM 35.2119 -99.1972 270° West 431 496 38,000  Level Fort Worth Center
Tue 09:28:01 AM 35.2139 -99.3447 271° West 431 496 38,000  Level Fort Worth Center
Tue 09:28:27 AM 35.2164 -99.3978 273° West 428 493 38,000  Level Albuquerque Center
Tue 09:29:28 AM 35.2189 -99.5439 271° West 428 493 38,000  Level Albuquerque Center
Tue 09:30:29 AM 35.2206 -99.6900 271° West 428 493 38,000  Level Albuquerque Center
Tue 09:31:30 AM 35.2228 -99.8369 271° West 430 495 38,000  Level Albuquerque Center
Tue 09:32:31 AM 35.2236 -99.9828 270° West 428 493 38,000  Level Albuquerque Center
Tue 09:33:32 AM 35.2258 -100.1294 271° West 430 495 38,000  Level Albuquerque Center
Tue 09:34:33 AM 35.2281 -100.2767 271° West 430 495 38,000  Level Albuquerque Center
Tue 09:35:34 AM 35.2264 -100.4239 269° West 432 497 38,000  Level Albuquerque Center
Tue 09:36:36 AM 35.2281 -100.5711 271° West 432 497 38,000  Level Albuquerque Center
Tue 09:37:37 AM 35.2303 -100.7386 271° West 433 498 38,000  Level Albuquerque Center
Tue 09:38:38 AM 35.2300 -100.8844 270° West 431 496 38,000  Level Albuquerque Center
Tue 09:39:39 AM 35.2300 -101.0317 270° West 433 498 38,000  Level Albuquerque Center
Tue 09:40:40 AM 35.2303 -101.1764 270° West 430 495 38,000  Level Albuquerque Center
Tue 09:41:42 AM 35.2300 -101.3336 270° West 426 490 38,000  Level Albuquerque Center
Tue 09:42:43 AM 35.2325 -101.4800 271° West 428 493 38,000  Level Albuquerque Center
Tue 09:43:44 AM 35.2319 -101.6239 270° West 424 488 38,000  Level Albuquerque Center
Tue 09:44:45 AM 35.2272 -101.7775 268° West 424 488 38,000  Level Albuquerque Center
Tue 09:45:47 AM 35.2267 -101.9208 270° West 421 484 38,000  Level Albuquerque Center
Tue 09:46:48 AM 35.2247 -102.0525 269° West 421 484 38,000  Level Albuquerque Center
Tue 09:47:49 AM 35.2233 -102.1961 269° West 422 486 38,000  Level Albuquerque Center
Tue 09:48:50 AM 35.2222 -102.3392 269° West 422 486 38,000  Level Albuquerque Center
Tue 09:49:52 AM 35.2203 -102.5117 269° West 424 488 38,000  Level Albuquerque Center
Tue 09:50:53 AM 35.2194 -102.6550 270° West 424 488 38,000  Level Albuquerque Center
Tue 09:51:55 AM 35.2183 -102.7978 269° West 422 486 38,000  Level Albuquerque Center
Tue 09:52:56 AM 35.2167 -102.9411 269° West 422 486 38,000  Level Albuquerque Center
Tue 09:53:58 AM 35.2153 -103.0781 269° West 421 484 38,000  Level Albuquerque Center
Tue 09:54:59 AM 35.2133 -103.2219 269° West 420 483 38,000  Level Albuquerque Center
Tue 09:56:00 AM 35.2097 -103.3642 268° West 417 480 38,000  Level Albuquerque Center
Tue 09:57:02 AM 35.2067 -103.5314 269° West 417 480 38,000  Level Albuquerque Center
Tue 09:58:03 AM 35.2039 -103.6742 269° West 418 481 38,000  Level Albuquerque Center
Tue 09:59:05 AM 35.2011 -103.8183 269° West 419 482 38,000  Level Albuquerque Center
Tue 10:00:06 AM 35.1978 -103.9631 268° West 420 483 38,000  Level Albuquerque Center
Tue 10:01:08 AM 35.1947 -104.1067 269° West 424 488 38,000  Level Albuquerque Center
Tue 10:02:10 AM 35.1919 -104.2489 269° West 422 486 38,000  Level Albuquerque Center
Tue 10:03:11 AM 35.1875 -104.3925 268° West 422 486 38,000  Level Albuquerque Center
Tue 10:04:13 AM 35.1828 -104.5356 268° West 423 487 38,000  Level Albuquerque Center
Tue 10:05:14 AM 35.1767 -104.6981 267° West 426 490 38,000  Level Albuquerque Center
Tue 10:06:16 AM 35.1728 -104.8431 268° West 424 488 38,000  Level Albuquerque Center
Tue 10:07:18 AM 35.1686 -104.9867 268° West 421 484 38,000  Level Albuquerque Center
Tue 10:08:19 AM 35.1650 -105.1300 268° West 419 482 38,000  Level Albuquerque Center
Tue 10:09:21 AM 35.1606 -105.2725 268° West 417 480 38,000  Level Albuquerque Center
Tue 10:10:22 AM 35.1550 -105.4156 267° West 418 481 38,000  Level Albuquerque Center
Tue 10:11:24 AM 35.1503 -105.5594 268° West 419 482 38,000  Level Albuquerque Center
Tue 10:12:26 AM 35.1447 -105.7014 267° West 416 479 38,000  Level Albuquerque Center
Tue 10:13:27 AM 35.1383 -105.8681 267° West 417 480 38,000  Level Albuquerque Center
Tue 10:14:29 AM 35.1311 -106.0103 266° West 416 479 38,000  Level Albuquerque Center
Tue 10:15:31 AM 35.1256 -106.1506 267° West 411 473 38,000  Level Albuquerque Center
Tue 10:16:32 AM 35.1225 -106.2811 268° West 411 473 38,000  Level Albuquerque Center
Tue 10:17:34 AM 35.1158 -106.4194 267° West 410 472 38,000  Level Albuquerque Center
Tue 10:18:36 AM 35.1072 -106.5842 266° West 414 476 38,000  Level Albuquerque Center
Tue 10:19:38 AM 35.1003 -106.7186 266° West 417 480 38,000  Level Albuquerque Center
Tue 10:20:40 AM 35.0942 -106.8703 267° West 406 467 38,000  Level Albuquerque Center
Tue 10:21:41 AM 35.0892 -107.0019 267° West 405 466 38,000  Level Albuquerque Center
Tue 10:22:43 AM 35.0828 -107.1331 267° West 406 467 38,000  Level Albuquerque Center
Tue 10:23:45 AM 35.0733 -107.2933 266° West 414 476 38,000  Level Albuquerque Center
Tue 10:24:47 AM 35.0658 -107.4303 266° West 408 470 38,000  Level Albuquerque Center
Tue 10:25:49 AM 35.0586 -107.5664 266° West 405 466 38,000  Level Albuquerque Center
Tue 10:26:51 AM 35.0522 -107.7039 267° West 405 466 38,000  Level Albuquerque Center
Tue 10:27:53 AM 35.0433 -107.8556 266° West 402 463 38,000  Level Albuquerque Center
Tue 10:28:55 AM 35.0375 -107.9847 267° West 399 459 38,000 -435 Level Albuquerque Center
Tue 10:29:57 AM 35.0286 -108.1364 266° West 400 460 37,100 -677 Descending Albuquerque Center
Tue 10:30:59 AM 35.0217 -108.2653 266° West 399 459 36,600 -532 Descending Albuquerque Center
Tue 10:32:01 AM 35.0128 -108.4167 266° West 400 460 36,000 -290 Descending Albuquerque Center
Tue 10:33:03 AM 35.0053 -108.5478 266° West 403 464 36,000  Level Albuquerque Center
Tue 10:34:05 AM 34.9964 -108.6800 265° West 406 467 36,000  Level Albuquerque Center
Tue 10:35:07 AM 34.9875 -108.8358 266° West 411 473 36,000  Level Albuquerque Center
Tue 10:36:09 AM 34.9786 -108.9694 265° West 412 474 36,000  Level Albuquerque Center
Tue 10:37:11 AM 34.9683 -109.1278 266° West 417 480 36,000  Level Albuquerque Center
Tue 10:38:13 AM 34.9317 -109.2539 251° West 413 475 36,000  Level Albuquerque Center
Tue 10:39:15 AM 34.8800 -109.3972 246° West 414 476 36,000  Level Albuquerque Center
Tue 10:40:17 AM 34.8353 -109.5164 245° Southwest 409 471 36,000  Level Albuquerque Center
Tue 10:41:19 AM 34.7828 -109.6553 245° Southwest 405 466 36,000  Level Albuquerque Center
Tue 10:42:21 AM 34.7386 -109.7747 246° West 405 466 36,000  Level Albuquerque Center
Tue 10:43:23 AM 34.6869 -109.9142 246° West 405 466 36,000  Level Albuquerque Center
Tue 10:44:25 AM 34.6442 -110.0322 246° West 401 461 36,000  Level Albuquerque Center
Tue 10:45:27 AM 34.5939 -110.1742 247° West 409 471 36,000 -194 Level Albuquerque Center
Tue 10:46:29 AM 34.5514 -110.2922 246° West 403 464 35,600 -1,403 Descending Albuquerque Center
Tue 10:47:31 AM 34.4972 -110.4208 243° Southwest 390 449 33,100 -1,452 Descending Albuquerque Center
Tue 10:48:33 AM 34.4606 -110.5303 248° West 397 457 32,600 -1,210 Descending Albuquerque Center
Tue 10:49:35 AM 34.4147 -110.6475 245° Southwest 388 447 30,600 -2,177 Descending Albuquerque Center
Tue 10:50:37 AM 34.3569 -110.7856 243° Southwest 386 444 28,100 -1,597 Descending Albuquerque Center
Tue 10:51:39 AM 34.2892 -110.8817 230° Southwest 376 433 27,300 -1,355 Descending Albuquerque Center
Tue 10:52:41 AM 34.2178 -110.9731 227° Southwest 374 430 25,300 -1,790 Descending Albuquerque Center
Tue 10:53:43 AM 34.1486 -111.0614 227° Southwest 367 422 23,600 -1,887 Descending Albuquerque Center
Tue 10:54:45 AM 34.0822 -111.1478 227° Southwest 357 411 21,400 -1,984 Descending Albuquerque Center
Tue 10:55:47 AM 34.0181 -111.2300 227° Southwest 343 395 19,500 -1,887 Descending Albuquerque Center
Tue 10:56:49 AM 33.9556 -111.3100 227° Southwest 332 382 17,500 -1,839 Descending Albuquerque Center
Tue 10:57:51 AM 33.8814 -111.4047 227° Southwest 322 371 15,700 -1,597 Descending Albuquerque Center
Tue 10:58:53 AM 33.8375 -111.4883 238° Southwest 297 342 14,200 -1,500 Descending Albuquerque Center
Tue 10:59:55 AM 33.7942 -111.5706 238° Southwest 289 333 12,600 -1,548 Descending Albuquerque Center
Tue 11:00:57 AM 33.7525 -111.6492 237° Southwest 279 321 11,000 -1,306 Descending Albuquerque Center
Tue 11:01:59 AM 33.7114 -111.7267 237° Southwest 274 315 9,900 -480 Descending Albuquerque Center
Tue 11:03:02 AM 33.6692 -111.8044 237° Southwest 275 316 10,000 -339 Climbing Albuquerque Center
Tue 11:04:03 AM 33.6278 -111.8794 236° Southwest 270 311 9,200 -720 Descending Albuquerque Center
Tue 11:04:42 AM 33.6000 -111.9333 238° Southwest 251 289 8,800 -667 Descending Phoenix TRACON
Tue 11:05:42 AM 33.5667 -112.0000 239° Southwest 233 268 8,100 -1,000 Descending Phoenix TRACON
Tue 11:06:42 AM 33.5333 -112.0667 239° Southwest 219 252 6,800 -1,450 Descending Phoenix TRACON
Tue 11:07:42 AM 33.5333 -112.1333 270° West 231 266 5,200 -1,533 Descending Phoenix TRACON
Tue 11:08:12 AM 33.5092 -112.1622 225° Southwest 244 281 4,500 -1,304 Descending Albuquerque Center
Tue 11:09:14 AM 33.4500 -112.1525 172° South 220 253 3,200 -1,319 Descending Albuquerque Center
Tue 11:09:43 AM 33.4500 -112.1167 90° East 190 219 2,500 -1,011 Descending Phoenix TRACON
Tue 11:10:43 AM 33.4333 -112.0667 112° Southeast 153 176 1,700 -800 Descending Phoenix TRACON

Login

Don't have an account? Register now (free) for customized features, flight alerts, and more!